Terminal Aerodrome Forecast
Issued by NWS Greer, SC

Home | Current Version | Previous Version | Text Only | Print | Product List | Glossary On
Versions: 1 2 3 4 5 6 7 8 9 10 11 12 13 14 15 16 17 18 19 20 21 22 23 24 25 26 27 28 29 30 31 32 33 34 35 36 37 38 39
000
FTUS42 KGSP 061127
TAFAVL
TAF
KAVL 061127Z 0612/0712 35003KT P6SM SCT030 BKN090
     FM061800 35006KT P6SM VCSH BKN045
     FM070100 34003KT P6SM SCT060
     FM071000 00000KT 4SM BR SCT250=

USA.gov is the U.S. government's official web portal to all federal, state and local government web resources and services.